Accueil
METAR-TAF:

METAR-TAF

Aéroports :

Ingolstadt, Allemagne

latitude: 48-43N, longitude: 011-32E, altitude: 367 m

Observation

Le bulletin a été fait il y a 52 minutes, à 21:20 UTC
Vent calme
Température 20°C
Humidité 68%
Pression 1019 hPa

METAR: ETSI 212120Z AUTO 00000KT //// // ////// 20/14 Q1019 ///

Heure: 00:12 (22:12 UTC)

Prévision

Le bulletin a été fait il y a 8 heures et 58 minutes, à 13:14 UTC
Prévision valable du 21 à 14 UTC au 21 à 23 UTC
Vent 3 kt de direction variable
Visibilité 10 km ou plus
Quelques nuages à une hauteur de 6500 ft

TAF: ETSI 211314Z 2114/2123 VRB03KT 9999 NSW FEW065

Observations et prévisions météorologiques de plus de 4000 aéroports (messages METAR et TAF).

Les stations disponibles sont représentées par des disques jaunes et rouges sur la carte.

Passer la souris dessus pour voir le nom de la station.

Cliquer dessus pour voir les observations et prévisions météorologiques.

Pour changer de carte: cliquez sur les boutons verts avec une croix noire pour zoomer, sur le bouton vert avec un tiret pour effectuer un zoom arrière, ou sur les flèches vertes pour les cartes adjacentes.


METAR-TAF: